sensor_id;sensor_type;location;lat;lon;timestamp;temperature;humidity
3312;DHT22;1668;49.648;8.570;2023-12-20T00:02:02;4.90;99.90
3312;DHT22;1668;49.648;8.570;2023-12-20T00:04:29;4.90;99.90
3312;DHT22;1668;49.648;8.570;2023-12-20T00:06:56;4.90;99.90
3312;DHT22;1668;49.648;8.570;2023-12-20T00:09:22;4.90;99.90
3312;DHT22;1668;49.648;8.570;2023-12-20T00:11:49;4.90;99.90
3312;DHT22;1668;49.648;8.570;2023-12-20T00:14:17;4.90;99.90
3312;DHT22;1668;49.648;8.570;2023-12-20T00:16:44;4.90;99.90
3312;DHT22;1668;49.648;8.570;2023-12-20T00:19:11;4.90;99.90
3312;DHT22;1668;49.648;8.570;2023-12-20T00:21:38;4.90;99.90
3312;DHT22;1668;49.648;8.570;2023-12-20T00:24:05;4.90;99.90
3312;DHT22;1668;49.648;8.570;2023-12-20T00:26:32;4.90;99.90
3312;DHT22;1668;49.648;8.570;2023-12-20T00:28:59;4.90;99.90
3312;DHT22;1668;49.648;8.570;2023-12-20T00:31:28;4.90;99.90
3312;DHT22;1668;49.648;8.570;2023-12-20T00:33:54;4.90;99.90
3312;DHT22;1668;49.648;8.570;2023-12-20T00:36:21;4.90;99.90
3312;DHT22;1668;49.648;8.570;2023-12-20T00:38:48;4.90;99.90
3312;DHT22;1668;49.648;8.570;2023-12-20T00:41:16;4.90;99.90
3312;DHT22;1668;49.648;8.570;2023-12-20T00:43:43;4.90;99.90
3312;DHT22;1668;49.648;8.570;2023-12-20T00:46:11;4.90;99.90
3312;DHT22;1668;49.648;8.570;2023-12-20T00:48:39;4.90;99.90
3312;DHT22;1668;49.648;8.570;2023-12-20T00:51:07;4.90;99.90
3312;DHT22;1668;49.648;8.570;2023-12-20T00:53:34;4.90;99.90
3312;DHT22;1668;49.648;8.570;2023-12-20T00:56:01;4.90;99.90
3312;DHT22;1668;49.648;8.570;2023-12-20T00:58:28;4.90;99.90
3312;DHT22;1668;49.648;8.570;2023-12-20T01:00:55;4.80;99.90
3312;DHT22;1668;49.648;8.570;2023-12-20T01:03:23;4.80;99.90
3312;DHT22;1668;49.648;8.570;2023-12-20T01:05:51;4.80;99.90
3312;DHT22;1668;49.648;8.570;2023-12-20T01:08:18;4.80;99.90
3312;DHT22;1668;49.648;8.570;2023-12-20T01:10:45;4.80;99.90
3312;DHT22;1668;49.648;8.570;2023-12-20T01:13:12;4.80;99.90
3312;DHT22;1668;49.648;8.570;2023-12-20T01:15:39;4.80;99.90
3312;DHT22;1668;49.648;8.570;2023-12-20T01:18:06;4.80;99.90
3312;DHT22;1668;49.648;8.570;2023-12-20T01:20:32;4.80;99.90
3312;DHT22;1668;49.648;8.570;2023-12-20T01:23:01;4.80;99.90
3312;DHT22;1668;49.648;8.570;2023-12-20T01:25:27;4.80;99.90
3312;DHT22;1668;49.648;8.570;2023-12-20T01:27:54;4.80;99.90
3312;DHT22;1668;49.648;8.570;2023-12-20T01:30:21;4.80;99.90
3312;DHT22;1668;49.648;8.570;2023-12-20T01:32:48;4.80;99.90
3312;DHT22;1668;49.648;8.570;2023-12-20T01:35:15;4.80;99.90
3312;DHT22;1668;49.648;8.570;2023-12-20T01:37:42;4.80;99.90
3312;DHT22;1668;49.648;8.570;2023-12-20T01:40:10;4.80;99.90
3312;DHT22;1668;49.648;8.570;2023-12-20T01:42:37;4.80;99.90
3312;DHT22;1668;49.648;8.570;2023-12-20T01:45:05;4.80;99.90
3312;DHT22;1668;49.648;8.570;2023-12-20T01:47:32;4.80;99.90
3312;DHT22;1668;49.648;8.570;2023-12-20T01:49:59;4.80;99.90
3312;DHT22;1668;49.648;8.570;2023-12-20T01:52:26;4.80;99.90
3312;DHT22;1668;49.648;8.570;2023-12-20T01:54:53;4.80;99.90
3312;DHT22;1668;49.648;8.570;2023-12-20T01:57:28;4.80;99.90
3312;DHT22;1668;49.648;8.570;2023-12-20T01:59:55;4.80;99.90
3312;DHT22;1668;49.648;8.570;2023-12-20T02:02:23;4.80;99.90
3312;DHT22;1668;49.648;8.570;2023-12-20T02:04:50;4.80;99.90
3312;DHT22;1668;49.648;8.570;2023-12-20T02:07:18;4.80;99.90
3312;DHT22;1668;49.648;8.570;2023-12-20T02:09:45;4.80;99.90
3312;DHT22;1668;49.648;8.570;2023-12-20T02:12:11;4.80;99.90
3312;DHT22;1668;49.648;8.570;2023-12-20T02:14:40;4.80;99.90
3312;DHT22;1668;49.648;8.570;2023-12-20T02:17:06;4.80;99.90
3312;DHT22;1668;49.648;8.570;2023-12-20T02:19:33;4.80;99.90
3312;DHT22;1668;49.648;8.570;2023-12-20T02:22:09;4.80;99.90
3312;DHT22;1668;49.648;8.570;2023-12-20T02:24:35;4.80;99.90
3312;DHT22;1668;49.648;8.570;2023-12-20T02:27:03;4.80;99.90
3312;DHT22;1668;49.648;8.570;2023-12-20T02:29:32;4.80;99.90
3312;DHT22;1668;49.648;8.570;2023-12-20T02:31:59;4.80;99.90
3312;DHT22;1668;49.648;8.570;2023-12-20T02:34:26;4.80;99.90
3312;DHT22;1668;49.648;8.570;2023-12-20T02:36:53;4.80;99.90
3312;DHT22;1668;49.648;8.570;2023-12-20T02:39:22;4.80;99.90
3312;DHT22;1668;49.648;8.570;2023-12-20T02:41:49;4.80;99.90
3312;DHT22;1668;49.648;8.570;2023-12-20T02:44:16;4.80;99.90
3312;DHT22;1668;49.648;8.570;2023-12-20T02:46:43;4.80;99.90
3312;DHT22;1668;49.648;8.570;2023-12-20T02:49:09;4.80;99.90
3312;DHT22;1668;49.648;8.570;2023-12-20T02:51:36;4.80;99.90
3312;DHT22;1668;49.648;8.570;2023-12-20T02:54:04;4.80;99.90
3312;DHT22;1668;49.648;8.570;2023-12-20T02:56:33;4.80;99.90
3312;DHT22;1668;49.648;8.570;2023-12-20T02:59:00;4.80;99.90
3312;DHT22;1668;49.648;8.570;2023-12-20T03:01:26;4.80;99.90
3312;DHT22;1668;49.648;8.570;2023-12-20T03:03:53;4.80;99.90
3312;DHT22;1668;49.648;8.570;2023-12-20T03:06:20;4.80;99.90
3312;DHT22;1668;49.648;8.570;2023-12-20T03:08:47;4.80;99.90
3312;DHT22;1668;49.648;8.570;2023-12-20T03:11:14;4.80;99.90
3312;DHT22;1668;49.648;8.570;2023-12-20T03:13:42;4.80;99.90
3312;DHT22;1668;49.648;8.570;2023-12-20T03:16:09;4.80;99.90
3312;DHT22;1668;49.648;8.570;2023-12-20T03:18:36;4.80;99.90
3312;DHT22;1668;49.648;8.570;2023-12-20T03:21:04;4.80;99.90
3312;DHT22;1668;49.648;8.570;2023-12-20T03:23:31;4.80;99.90
3312;DHT22;1668;49.648;8.570;2023-12-20T03:25:59;4.80;99.90
3312;DHT22;1668;49.648;8.570;2023-12-20T03:28:26;4.80;99.90
3312;DHT22;1668;49.648;8.570;2023-12-20T03:30:54;4.80;99.90
3312;DHT22;1668;49.648;8.570;2023-12-20T03:33:22;4.80;99.90
3312;DHT22;1668;49.648;8.570;2023-12-20T03:35:48;4.80;99.90
3312;DHT22;1668;49.648;8.570;2023-12-20T03:38:15;4.80;99.90
3312;DHT22;1668;49.648;8.570;2023-12-20T03:40:42;4.80;99.90
3312;DHT22;1668;49.648;8.570;2023-12-20T03:43:09;4.80;99.90
3312;DHT22;1668;49.648;8.570;2023-12-20T03:45:36;4.80;99.90
3312;DHT22;1668;49.648;8.570;2023-12-20T03:48:05;4.80;99.90
3312;DHT22;1668;49.648;8.570;2023-12-20T03:50:32;4.80;99.90
3312;DHT22;1668;49.648;8.570;2023-12-20T03:52:59;4.80;99.90
3312;DHT22;1668;49.648;8.570;2023-12-20T03:55:26;4.80;99.90
3312;DHT22;1668;49.648;8.570;2023-12-20T03:57:52;4.80;99.90
3312;DHT22;1668;49.648;8.570;2023-12-20T04:00:19;4.80;99.90
3312;DHT22;1668;49.648;8.570;2023-12-20T04:02:46;4.80;99.90
3312;DHT22;1668;49.648;8.570;2023-12-20T04:05:15;4.80;99.90
3312;DHT22;1668;49.648;8.570;2023-12-20T04:07:41;4.80;99.90
3312;DHT22;1668;49.648;8.570;2023-12-20T04:10:09;4.80;99.90
3312;DHT22;1668;49.648;8.570;2023-12-20T04:12:36;4.80;99.90
3312;DHT22;1668;49.648;8.570;2023-12-20T04:15:04;4.80;99.90
3312;DHT22;1668;49.648;8.570;2023-12-20T04:17:34;4.80;99.90
3312;DHT22;1668;49.648;8.570;2023-12-20T04:20:01;4.80;99.90
3312;DHT22;1668;49.648;8.570;2023-12-20T04:22:30;4.80;99.90
3312;DHT22;1668;49.648;8.570;2023-12-20T04:24:56;4.80;99.90
3312;DHT22;1668;49.648;8.570;2023-12-20T04:27:23;4.80;99.90
3312;DHT22;1668;49.648;8.570;2023-12-20T04:29:50;4.80;99.90
3312;DHT22;1668;49.648;8.570;2023-12-20T04:32:17;4.80;99.90
3312;DHT22;1668;49.648;8.570;2023-12-20T04:34:44;4.80;99.90
3312;DHT22;1668;49.648;8.570;2023-12-20T04:37:11;4.80;99.90
3312;DHT22;1668;49.648;8.570;2023-12-20T04:39:39;4.80;99.90
3312;DHT22;1668;49.648;8.570;2023-12-20T04:42:06;4.80;99.90
3312;DHT22;1668;49.648;8.570;2023-12-20T04:44:33;4.80;99.90
3312;DHT22;1668;49.648;8.570;2023-12-20T04:47:00;4.80;99.90
3312;DHT22;1668;49.648;8.570;2023-12-20T04:49:27;4.80;99.90
3312;DHT22;1668;49.648;8.570;2023-12-20T04:51:54;4.80;99.90
3312;DHT22;1668;49.648;8.570;2023-12-20T04:54:21;4.80;99.90
3312;DHT22;1668;49.648;8.570;2023-12-20T04:56:49;4.80;99.90
3312;DHT22;1668;49.648;8.570;2023-12-20T04:59:16;4.80;99.90
3312;DHT22;1668;49.648;8.570;2023-12-20T05:01:43;4.80;99.90
3312;DHT22;1668;49.648;8.570;2023-12-20T05:04:10;4.80;99.90
3312;DHT22;1668;49.648;8.570;2023-12-20T05:06:36;4.80;99.90
3312;DHT22;1668;49.648;8.570;2023-12-20T05:09:03;4.80;99.90
3312;DHT22;1668;49.648;8.570;2023-12-20T05:11:30;4.80;99.90
3312;DHT22;1668;49.648;8.570;2023-12-20T05:13:58;4.80;99.90
3312;DHT22;1668;49.648;8.570;2023-12-20T05:16:25;4.80;99.90
3312;DHT22;1668;49.648;8.570;2023-12-20T05:18:52;4.80;99.90
3312;DHT22;1668;49.648;8.570;2023-12-20T05:21:19;4.80;99.90
3312;DHT22;1668;49.648;8.570;2023-12-20T05:23:46;4.80;99.90
3312;DHT22;1668;49.648;8.570;2023-12-20T05:26:13;4.80;99.90
3312;DHT22;1668;49.648;8.570;2023-12-20T05:28:39;4.80;99.90
3312;DHT22;1668;49.648;8.570;2023-12-20T05:31:08;4.80;99.90
3312;DHT22;1668;49.648;8.570;2023-12-20T05:33:35;4.80;99.90
3312;DHT22;1668;49.648;8.570;2023-12-20T05:36:03;4.80;99.90
3312;DHT22;1668;49.648;8.570;2023-12-20T05:38:30;4.80;99.90
3312;DHT22;1668;49.648;8.570;2023-12-20T05:40:56;4.80;99.90
3312;DHT22;1668;49.648;8.570;2023-12-20T05:43:23;4.80;99.90
3312;DHT22;1668;49.648;8.570;2023-12-20T05:45:50;4.80;99.90
3312;DHT22;1668;49.648;8.570;2023-12-20T05:48:18;4.80;99.90
3312;DHT22;1668;49.648;8.570;2023-12-20T05:50:45;4.80;99.90
3312;DHT22;1668;49.648;8.570;2023-12-20T05:53:12;4.80;99.90
3312;DHT22;1668;49.648;8.570;2023-12-20T05:55:39;4.80;99.90
3312;DHT22;1668;49.648;8.570;2023-12-20T05:58:06;4.80;99.90
3312;DHT22;1668;49.648;8.570;2023-12-20T06:00:33;4.80;99.90
3312;DHT22;1668;49.648;8.570;2023-12-20T06:03:00;4.80;99.90
3312;DHT22;1668;49.648;8.570;2023-12-20T06:05:28;4.80;99.90
3312;DHT22;1668;49.648;8.570;2023-12-20T06:07:54;4.80;99.90
3312;DHT22;1668;49.648;8.570;2023-12-20T06:10:23;4.70;99.90
3312;DHT22;1668;49.648;8.570;2023-12-20T06:12:50;4.70;99.90
3312;DHT22;1668;49.648;8.570;2023-12-20T06:15:16;4.70;99.90
3312;DHT22;1668;49.648;8.570;2023-12-20T06:17:43;4.70;99.90
3312;DHT22;1668;49.648;8.570;2023-12-20T06:20:10;4.60;99.90
3312;DHT22;1668;49.648;8.570;2023-12-20T06:22:39;4.60;99.90
3312;DHT22;1668;49.648;8.570;2023-12-20T06:25:07;4.60;99.90
3312;DHT22;1668;49.648;8.570;2023-12-20T06:27:34;4.60;99.90
3312;DHT22;1668;49.648;8.570;2023-12-20T06:30:01;4.60;99.90
3312;DHT22;1668;49.648;8.570;2023-12-20T06:32:28;4.50;99.90
3312;DHT22;1668;49.648;8.570;2023-12-20T06:34:55;4.50;99.90
3312;DHT22;1668;49.648;8.570;2023-12-20T06:37:22;4.50;99.90
3312;DHT22;1668;49.648;8.570;2023-12-20T06:39:50;4.50;99.90
3312;DHT22;1668;49.648;8.570;2023-12-20T06:42:17;4.50;99.90
3312;DHT22;1668;49.648;8.570;2023-12-20T06:44:44;4.40;99.90
3312;DHT22;1668;49.648;8.570;2023-12-20T06:47:11;4.40;99.90
3312;DHT22;1668;49.648;8.570;2023-12-20T06:49:39;4.40;99.90
3312;DHT22;1668;49.648;8.570;2023-12-20T06:52:06;4.40;99.90
3312;DHT22;1668;49.648;8.570;2023-12-20T06:54:33;4.30;99.90
3312;DHT22;1668;49.648;8.570;2023-12-20T06:57:02;4.30;99.90
3312;DHT22;1668;49.648;8.570;2023-12-20T06:59:30;4.30;99.90
3312;DHT22;1668;49.648;8.570;2023-12-20T07:01:57;4.30;99.90
3312;DHT22;1668;49.648;8.570;2023-12-20T07:04:23;4.30;99.90
3312;DHT22;1668;49.648;8.570;2023-12-20T07:06:50;4.20;99.90
3312;DHT22;1668;49.648;8.570;2023-12-20T07:09:19;4.20;99.90
3312;DHT22;1668;49.648;8.570;2023-12-20T07:11:46;4.20;99.90
3312;DHT22;1668;49.648;8.570;2023-12-20T07:14:14;4.20;99.90
3312;DHT22;1668;49.648;8.570;2023-12-20T07:16:41;4.10;99.90
3312;DHT22;1668;49.648;8.570;2023-12-20T07:19:08;4.00;99.90
3312;DHT22;1668;49.648;8.570;2023-12-20T07:21:35;4.00;99.90
3312;DHT22;1668;49.648;8.570;2023-12-20T07:24:02;4.00;99.90
3312;DHT22;1668;49.648;8.570;2023-12-20T07:26:29;4.00;99.90
3312;DHT22;1668;49.648;8.570;2023-12-20T07:28:55;4.00;99.90
3312;DHT22;1668;49.648;8.570;2023-12-20T07:31:25;4.00;99.90
3312;DHT22;1668;49.648;8.570;2023-12-20T07:33:52;3.90;99.90
3312;DHT22;1668;49.648;8.570;2023-12-20T07:36:19;3.90;99.90
3312;DHT22;1668;49.648;8.570;2023-12-20T07:38:46;3.90;99.90
3312;DHT22;1668;49.648;8.570;2023-12-20T07:41:13;3.80;99.90
3312;DHT22;1668;49.648;8.570;2023-12-20T07:43:41;3.80;99.90
3312;DHT22;1668;49.648;8.570;2023-12-20T07:46:08;3.80;99.90
3312;DHT22;1668;49.648;8.570;2023-12-20T07:48:37;3.80;99.90
3312;DHT22;1668;49.648;8.570;2023-12-20T07:51:05;3.70;99.90
3312;DHT22;1668;49.648;8.570;2023-12-20T07:53:33;3.70;99.90
3312;DHT22;1668;49.648;8.570;2023-12-20T07:56:00;3.70;99.90
3312;DHT22;1668;49.648;8.570;2023-12-20T07:58:27;3.70;99.90
3312;DHT22;1668;49.648;8.570;2023-12-20T08:00:55;3.70;99.90
3312;DHT22;1668;49.648;8.570;2023-12-20T08:03:22;3.70;99.90
3312;DHT22;1668;49.648;8.570;2023-12-20T08:05:50;3.70;99.90
3312;DHT22;1668;49.648;8.570;2023-12-20T08:08:17;3.70;99.90
3312;DHT22;1668;49.648;8.570;2023-12-20T08:10:44;3.70;99.90
3312;DHT22;1668;49.648;8.570;2023-12-20T08:13:11;3.70;99.90
3312;DHT22;1668;49.648;8.570;2023-12-20T08:15:38;3.70;99.90
3312;DHT22;1668;49.648;8.570;2023-12-20T08:18:05;3.70;99.90
3312;DHT22;1668;49.648;8.570;2023-12-20T08:20:32;3.70;99.90
3312;DHT22;1668;49.648;8.570;2023-12-20T08:23:00;3.70;99.90
3312;DHT22;1668;49.648;8.570;2023-12-20T08:25:27;3.70;99.90
3312;DHT22;1668;49.648;8.570;2023-12-20T08:27:54;3.70;99.90
3312;DHT22;1668;49.648;8.570;2023-12-20T08:30:20;3.70;99.90
3312;DHT22;1668;49.648;8.570;2023-12-20T08:32:47;3.70;99.90
3312;DHT22;1668;49.648;8.570;2023-12-20T08:35:14;3.80;99.90
3312;DHT22;1668;49.648;8.570;2023-12-20T08:37:41;3.80;99.90
3312;DHT22;1668;49.648;8.570;2023-12-20T08:40:10;3.90;99.90
3312;DHT22;1668;49.648;8.570;2023-12-20T08:42:37;4.00;99.90
3312;DHT22;1668;49.648;8.570;2023-12-20T08:45:05;4.00;99.90
3312;DHT22;1668;49.648;8.570;2023-12-20T08:47:31;4.10;99.90
3312;DHT22;1668;49.648;8.570;2023-12-20T08:49:58;4.10;99.90
3312;DHT22;1668;49.648;8.570;2023-12-20T08:52:27;4.10;99.90
3312;DHT22;1668;49.648;8.570;2023-12-20T08:54:54;4.20;99.90
3312;DHT22;1668;49.648;8.570;2023-12-20T08:57:23;4.20;99.90
3312;DHT22;1668;49.648;8.570;2023-12-20T08:59:50;4.20;99.90
3312;DHT22;1668;49.648;8.570;2023-12-20T09:02:17;4.30;99.90
3312;DHT22;1668;49.648;8.570;2023-12-20T09:04:44;4.30;99.90
3312;DHT22;1668;49.648;8.570;2023-12-20T09:07:21;4.30;99.90
3312;DHT22;1668;49.648;8.570;2023-12-20T09:09:48;4.40;99.90
3312;DHT22;1668;49.648;8.570;2023-12-20T09:12:15;4.40;99.90
3312;DHT22;1668;49.648;8.570;2023-12-20T09:14:43;4.50;99.90
3312;DHT22;1668;49.648;8.570;2023-12-20T09:17:10;4.50;99.90
3312;DHT22;1668;49.648;8.570;2023-12-20T09:19:37;4.50;99.90
3312;DHT22;1668;49.648;8.570;2023-12-20T09:22:04;4.60;99.90
3312;DHT22;1668;49.648;8.570;2023-12-20T09:24:31;4.60;99.90
3312;DHT22;1668;49.648;8.570;2023-12-20T09:26:59;4.60;99.90
3312;DHT22;1668;49.648;8.570;2023-12-20T09:29:26;4.70;99.90
3312;DHT22;1668;49.648;8.570;2023-12-20T09:31:54;4.70;99.90
3312;DHT22;1668;49.648;8.570;2023-12-20T09:34:21;4.80;99.90
3312;DHT22;1668;49.648;8.570;2023-12-20T09:36:48;4.80;99.90
3312;DHT22;1668;49.648;8.570;2023-12-20T09:39:15;4.80;99.90
3312;DHT22;1668;49.648;8.570;2023-12-20T09:41:45;4.80;99.90
3312;DHT22;1668;49.648;8.570;2023-12-20T09:44:15;4.90;99.90
3312;DHT22;1668;49.648;8.570;2023-12-20T09:46:45;4.90;99.90
3312;DHT22;1668;49.648;8.570;2023-12-20T09:49:17;4.90;99.90
3312;DHT22;1668;49.648;8.570;2023-12-20T09:51:45;5.00;99.90
3312;DHT22;1668;49.648;8.570;2023-12-20T09:54:13;5.00;99.90
3312;DHT22;1668;49.648;8.570;2023-12-20T09:56:40;5.10;99.90
3312;DHT22;1668;49.648;8.570;2023-12-20T09:59:07;5.10;99.90
3312;DHT22;1668;49.648;8.570;2023-12-20T10:01:34;5.10;99.90
3312;DHT22;1668;49.648;8.570;2023-12-20T10:04:05;5.10;99.90
3312;DHT22;1668;49.648;8.570;2023-12-20T10:06:36;5.20;99.90
3312;DHT22;1668;49.648;8.570;2023-12-20T10:09:03;5.20;99.90
3312;DHT22;1668;49.648;8.570;2023-12-20T10:11:31;5.30;99.90
3312;DHT22;1668;49.648;8.570;2023-12-20T10:13:59;5.30;99.90
3312;DHT22;1668;49.648;8.570;2023-12-20T10:16:27;5.40;99.90
3312;DHT22;1668;49.648;8.570;2023-12-20T10:18:53;5.40;99.90
3312;DHT22;1668;49.648;8.570;2023-12-20T10:21:20;5.40;99.90
3312;DHT22;1668;49.648;8.570;2023-12-20T10:23:49;5.40;99.90
3312;DHT22;1668;49.648;8.570;2023-12-20T10:26:19;5.40;99.90
3312;DHT22;1668;49.648;8.570;2023-12-20T10:28:50;5.40;99.90
3312;DHT22;1668;49.648;8.570;2023-12-20T10:31:27;5.40;99.90
3312;DHT22;1668;49.648;8.570;2023-12-20T10:33:56;5.40;99.90
3312;DHT22;1668;49.648;8.570;2023-12-20T10:36:24;5.50;99.90
3312;DHT22;1668;49.648;8.570;2023-12-20T10:38:54;5.50;99.90
3312;DHT22;1668;49.648;8.570;2023-12-20T10:41:25;5.50;99.90
3312;DHT22;1668;49.648;8.570;2023-12-20T10:43:55;5.50;99.90
3312;DHT22;1668;49.648;8.570;2023-12-20T10:46:22;5.50;99.90
3312;DHT22;1668;49.648;8.570;2023-12-20T10:48:52;5.60;99.90
3312;DHT22;1668;49.648;8.570;2023-12-20T10:51:20;5.60;99.90
3312;DHT22;1668;49.648;8.570;2023-12-20T10:53:48;5.60;99.90
3312;DHT22;1668;49.648;8.570;2023-12-20T10:56:17;5.60;99.90
3312;DHT22;1668;49.648;8.570;2023-12-20T10:58:45;5.60;99.90
3312;DHT22;1668;49.648;8.570;2023-12-20T11:01:13;5.70;99.90
3312;DHT22;1668;49.648;8.570;2023-12-20T11:03:44;5.70;99.90
3312;DHT22;1668;49.648;8.570;2023-12-20T11:06:19;5.70;75.10
3312;DHT22;1668;49.648;8.570;2023-12-20T11:08:54;5.70;85.80
3312;DHT22;1668;49.648;8.570;2023-12-20T11:11:32;5.80;78.90
3312;DHT22;1668;49.648;8.570;2023-12-20T11:14:05;5.80;49.10
3312;DHT22;1668;49.648;8.570;2023-12-20T11:16:37;5.90;1.00
3312;DHT22;1668;49.648;8.570;2023-12-20T11:19:05;5.90;21.00
3312;DHT22;1668;49.648;8.570;2023-12-20T11:21:32;5.90;30.80
3312;DHT22;1668;49.648;8.570;2023-12-20T11:23:59;5.90;1.00
3312;DHT22;1668;49.648;8.570;2023-12-20T11:26:29;5.90;1.00
3312;DHT22;1668;49.648;8.570;2023-12-20T11:29:31;5.90;1.00
3312;DHT22;1668;49.648;8.570;2023-12-20T11:31:59;6.00;23.00
3312;DHT22;1668;49.648;8.570;2023-12-20T11:34:27;6.00;1.00
3312;DHT22;1668;49.648;8.570;2023-12-20T11:36:58;6.00;1.00
3312;DHT22;1668;49.648;8.570;2023-12-20T11:39:26;6.00;1.00
3312;DHT22;1668;49.648;8.570;2023-12-20T11:41:56;6.00;1.00
3312;DHT22;1668;49.648;8.570;2023-12-20T11:44:25;6.00;1.00
3312;DHT22;1668;49.648;8.570;2023-12-20T11:46:52;6.10;1.00
3312;DHT22;1668;49.648;8.570;2023-12-20T11:49:23;6.00;1.00
3312;DHT22;1668;49.648;8.570;2023-12-20T11:51:50;6.10;1.00
3312;DHT22;1668;49.648;8.570;2023-12-20T11:54:17;6.10;3.30
3312;DHT22;1668;49.648;8.570;2023-12-20T11:56:45;6.10;11.30
3312;DHT22;1668;49.648;8.570;2023-12-20T11:59:13;6.10;1.00
3312;DHT22;1668;49.648;8.570;2023-12-20T12:01:47;6.10;1.00
3312;DHT22;1668;49.648;8.570;2023-12-20T12:04:14;6.10;1.00
3312;DHT22;1668;49.648;8.570;2023-12-20T12:06:41;6.10;1.00
3312;DHT22;1668;49.648;8.570;2023-12-20T12:09:08;6.10;1.00
3312;DHT22;1668;49.648;8.570;2023-12-20T12:11:35;6.10;1.00
3312;DHT22;1668;49.648;8.570;2023-12-20T12:14:02;6.10;12.50
3312;DHT22;1668;49.648;8.570;2023-12-20T12:16:30;6.10;1.00
3312;DHT22;1668;49.648;8.570;2023-12-20T12:18:58;6.10;1.00
3312;DHT22;1668;49.648;8.570;2023-12-20T12:21:26;6.10;1.00
3312;DHT22;1668;49.648;8.570;2023-12-20T12:23:53;6.10;1.00
3312;DHT22;1668;49.648;8.570;2023-12-20T12:26:20;6.10;1.00
3312;DHT22;1668;49.648;8.570;2023-12-20T12:28:46;6.10;1.00
3312;DHT22;1668;49.648;8.570;2023-12-20T12:31:14;6.10;1.00
3312;DHT22;1668;49.648;8.570;2023-12-20T12:33:44;6.10;1.00
3312;DHT22;1668;49.648;8.570;2023-12-20T12:36:12;6.10;1.00
3312;DHT22;1668;49.648;8.570;2023-12-20T12:38:43;6.10;1.00
3312;DHT22;1668;49.648;8.570;2023-12-20T12:41:10;6.10;1.00
3312;DHT22;1668;49.648;8.570;2023-12-20T12:43:39;6.10;1.00
3312;DHT22;1668;49.648;8.570;2023-12-20T12:46:06;6.10;1.00
3312;DHT22;1668;49.648;8.570;2023-12-20T12:48:33;6.10;1.00
3312;DHT22;1668;49.648;8.570;2023-12-20T12:51:01;6.10;1.00
3312;DHT22;1668;49.648;8.570;2023-12-20T12:53:28;6.10;1.00
3312;DHT22;1668;49.648;8.570;2023-12-20T12:55:55;6.10;1.00
3312;DHT22;1668;49.648;8.570;2023-12-20T12:58:22;6.10;1.00
3312;DHT22;1668;49.648;8.570;2023-12-20T13:00:50;6.10;1.00
3312;DHT22;1668;49.648;8.570;2023-12-20T13:03:17;6.10;1.00
3312;DHT22;1668;49.648;8.570;2023-12-20T13:05:44;6.20;1.00
3312;DHT22;1668;49.648;8.570;2023-12-20T13:08:14;6.10;1.00
3312;DHT22;1668;49.648;8.570;2023-12-20T13:10:41;6.20;1.00
3312;DHT22;1668;49.648;8.570;2023-12-20T13:13:08;6.10;1.00
3312;DHT22;1668;49.648;8.570;2023-12-20T13:15:34;6.20;1.00
3312;DHT22;1668;49.648;8.570;2023-12-20T13:18:01;6.20;1.00
3312;DHT22;1668;49.648;8.570;2023-12-20T13:20:30;6.20;1.00
3312;DHT22;1668;49.648;8.570;2023-12-20T13:22:57;6.20;1.00
3312;DHT22;1668;49.648;8.570;2023-12-20T13:25:25;6.20;1.00
3312;DHT22;1668;49.648;8.570;2023-12-20T13:27:53;6.20;1.00
3312;DHT22;1668;49.648;8.570;2023-12-20T13:30:20;6.30;1.00
3312;DHT22;1668;49.648;8.570;2023-12-20T13:32:47;6.30;1.00
3312;DHT22;1668;49.648;8.570;2023-12-20T13:35:14;6.30;1.00
3312;DHT22;1668;49.648;8.570;2023-12-20T13:37:41;6.30;1.00
3312;DHT22;1668;49.648;8.570;2023-12-20T13:40:10;6.30;1.00
3312;DHT22;1668;49.648;8.570;2023-12-20T13:42:39;6.30;1.00
3312;DHT22;1668;49.648;8.570;2023-12-20T13:45:07;6.30;1.00
3312;DHT22;1668;49.648;8.570;2023-12-20T13:47:35;6.30;99.90
3312;DHT22;1668;49.648;8.570;2023-12-20T13:50:02;6.30;1.00
3312;DHT22;1668;49.648;8.570;2023-12-20T13:52:30;6.30;1.00
3312;DHT22;1668;49.648;8.570;2023-12-20T13:54:56;6.30;99.90
3312;DHT22;1668;49.648;8.570;2023-12-20T13:57:23;6.40;99.90
3312;DHT22;1668;49.648;8.570;2023-12-20T13:59:51;6.40;1.00
3312;DHT22;1668;49.648;8.570;2023-12-20T14:02:18;6.50;99.90
3312;DHT22;1668;49.648;8.570;2023-12-20T14:04:45;6.50;99.90
3312;DHT22;1668;49.648;8.570;2023-12-20T14:07:12;6.50;99.90
3312;DHT22;1668;49.648;8.570;2023-12-20T14:09:39;6.50;99.90
3312;DHT22;1668;49.648;8.570;2023-12-20T14:12:11;6.50;99.90
3312;DHT22;1668;49.648;8.570;2023-12-20T14:14:38;6.40;99.90
3312;DHT22;1668;49.648;8.570;2023-12-20T14:17:06;6.50;99.90
3312;DHT22;1668;49.648;8.570;2023-12-20T14:19:33;6.50;99.90
3312;DHT22;1668;49.648;8.570;2023-12-20T14:22:00;6.50;99.90
3312;DHT22;1668;49.648;8.570;2023-12-20T14:24:27;6.50;99.90
3312;DHT22;1668;49.648;8.570;2023-12-20T14:26:54;6.50;99.90
3312;DHT22;1668;49.648;8.570;2023-12-20T14:29:21;6.50;99.90
3312;DHT22;1668;49.648;8.570;2023-12-20T14:31:48;6.50;99.90
3312;DHT22;1668;49.648;8.570;2023-12-20T14:34:17;6.50;99.90
3312;DHT22;1668;49.648;8.570;2023-12-20T14:36:44;6.50;99.90
3312;DHT22;1668;49.648;8.570;2023-12-20T14:39:11;6.50;99.90
3312;DHT22;1668;49.648;8.570;2023-12-20T14:41:38;6.40;99.90
3312;DHT22;1668;49.648;8.570;2023-12-20T14:44:06;6.40;99.90
3312;DHT22;1668;49.648;8.570;2023-12-20T14:46:33;6.40;99.90
3312;DHT22;1668;49.648;8.570;2023-12-20T14:49:00;6.50;99.90
3312;DHT22;1668;49.648;8.570;2023-12-20T14:51:29;6.40;99.90
3312;DHT22;1668;49.648;8.570;2023-12-20T14:53:56;6.40;99.90
3312;DHT22;1668;49.648;8.570;2023-12-20T14:56:25;6.50;99.90
3312;DHT22;1668;49.648;8.570;2023-12-20T14:58:54;6.50;99.90
3312;DHT22;1668;49.648;8.570;2023-12-20T15:01:21;6.40;99.90
3312;DHT22;1668;49.648;8.570;2023-12-20T15:03:49;6.40;99.90
3312;DHT22;1668;49.648;8.570;2023-12-20T15:06:16;6.40;99.90
3312;DHT22;1668;49.648;8.570;2023-12-20T15:08:45;6.40;99.90
3312;DHT22;1668;49.648;8.570;2023-12-20T15:11:12;6.40;99.90
3312;DHT22;1668;49.648;8.570;2023-12-20T15:13:39;6.40;99.90
3312;DHT22;1668;49.648;8.570;2023-12-20T15:16:06;6.40;99.90
3312;DHT22;1668;49.648;8.570;2023-12-20T15:18:34;6.40;99.90
3312;DHT22;1668;49.648;8.570;2023-12-20T15:21:02;6.30;99.90
3312;DHT22;1668;49.648;8.570;2023-12-20T15:23:31;6.30;99.90
3312;DHT22;1668;49.648;8.570;2023-12-20T15:25:59;6.30;99.90
3312;DHT22;1668;49.648;8.570;2023-12-20T15:28:26;6.30;99.90
3312;DHT22;1668;49.648;8.570;2023-12-20T15:30:54;6.30;99.90
3312;DHT22;1668;49.648;8.570;2023-12-20T15:33:22;6.30;1.00
3312;DHT22;1668;49.648;8.570;2023-12-20T15:35:49;6.30;99.90
3312;DHT22;1668;49.648;8.570;2023-12-20T15:38:15;6.30;99.90
3312;DHT22;1668;49.648;8.570;2023-12-20T15:40:42;6.30;99.90
3312;DHT22;1668;49.648;8.570;2023-12-20T15:43:10;6.30;99.90
3312;DHT22;1668;49.648;8.570;2023-12-20T15:45:37;6.30;99.90
3312;DHT22;1668;49.648;8.570;2023-12-20T15:48:06;6.30;1.00
3312;DHT22;1668;49.648;8.570;2023-12-20T15:50:35;6.20;1.00
3312;DHT22;1668;49.648;8.570;2023-12-20T15:53:02;6.20;1.00
3312;DHT22;1668;49.648;8.570;2023-12-20T15:55:29;6.20;1.00
3312;DHT22;1668;49.648;8.570;2023-12-20T15:57:56;6.20;1.00
3312;DHT22;1668;49.648;8.570;2023-12-20T16:00:24;6.20;1.00
3312;DHT22;1668;49.648;8.570;2023-12-20T16:02:51;6.20;1.00
3312;DHT22;1668;49.648;8.570;2023-12-20T16:05:19;6.20;1.00
3312;DHT22;1668;49.648;8.570;2023-12-20T16:07:45;6.20;1.00
3312;DHT22;1668;49.648;8.570;2023-12-20T16:10:12;6.20;1.00
3312;DHT22;1668;49.648;8.570;2023-12-20T16:12:39;6.20;1.00
3312;DHT22;1668;49.648;8.570;2023-12-20T16:15:07;6.20;1.00
3312;DHT22;1668;49.648;8.570;2023-12-20T16:17:36;6.20;1.00
3312;DHT22;1668;49.648;8.570;2023-12-20T16:20:03;6.20;1.00
3312;DHT22;1668;49.648;8.570;2023-12-20T16:22:30;6.20;1.00
3312;DHT22;1668;49.648;8.570;2023-12-20T16:24:57;6.20;1.00